createdAt,value
2018-07-06T00:00:08.746Z,0
2018-07-06T00:01:14.010Z,0
2018-07-06T00:02:19.190Z,0
2018-07-06T00:04:44.985Z,0
2018-07-06T00:05:50.172Z,0
2018-07-06T00:06:55.558Z,0
2018-07-06T00:08:00.722Z,0
2018-07-06T00:09:05.877Z,0
2018-07-06T00:10:11.391Z,0
2018-07-06T00:11:16.571Z,0
2018-07-06T00:12:21.794Z,0
2018-07-06T00:13:27.327Z,0
2018-07-06T00:14:32.765Z,0
2018-07-06T00:15:38.293Z,0
2018-07-06T00:16:43.439Z,0
2018-07-06T00:17:48.329Z,0
2018-07-06T00:18:53.720Z,0
2018-07-06T00:19:58.873Z,0
2018-07-06T00:21:04.041Z,0
2018-07-06T00:22:09.313Z,0
2018-07-06T00:23:14.774Z,0
2018-07-06T00:24:20.214Z,0
2018-07-06T00:25:25.171Z,0
2018-07-06T00:26:30.615Z,0
2018-07-06T00:27:36.316Z,0
2018-07-06T00:28:40.922Z,0
2018-07-06T00:29:46.356Z,0
2018-07-06T00:30:52.075Z,0
2018-07-06T00:31:57.518Z,0
2018-07-06T00:33:02.110Z,0
2018-07-06T00:34:07.238Z,0
2018-07-06T00:35:12.396Z,0
2018-07-06T00:36:17.844Z,0
2018-07-06T00:37:23.531Z,0
2018-07-06T00:38:28.966Z,0
2018-07-06T00:39:34.424Z,0
2018-07-06T00:40:39.865Z,0
2018-07-06T00:41:45.342Z,0
2018-07-06T00:42:51.034Z,0
2018-07-06T00:43:56.478Z,0
2018-07-06T00:45:01.958Z,0
2018-07-06T00:46:06.809Z,0
2018-07-06T00:47:11.679Z,0
2018-07-06T00:48:16.835Z,0
2018-07-06T00:49:22.541Z,0
2018-07-06T00:50:27.980Z,0
2018-07-06T00:51:33.947Z,0
2018-07-06T00:52:39.388Z,0
2018-07-06T00:53:44.281Z,0
2018-07-06T00:54:50.149Z,0
2018-07-06T00:55:55.519Z,0
2018-07-06T00:57:00.665Z,0
2018-07-06T00:58:05.251Z,0
2018-07-06T00:59:10.403Z,0
2018-07-06T01:00:15.870Z,0
2018-07-06T01:01:21.657Z,0
2018-07-06T01:02:26.530Z,0
2018-07-06T01:03:32.488Z,0
2018-07-06T01:04:37.932Z,0
2018-07-06T01:05:43.405Z,0
2018-07-06T01:06:49.241Z,0
2018-07-06T01:07:54.408Z,0
2018-07-06T01:08:59.573Z,0
2018-07-06T01:10:05.205Z,0
2018-07-06T01:11:10.439Z,0
2018-07-06T01:12:15.607Z,0
2018-07-06T01:13:21.018Z,0
2018-07-06T01:14:26.191Z,0
2018-07-06T01:15:32.039Z,0
2018-07-06T01:16:37.488Z,0
2018-07-06T01:17:42.656Z,0
2018-07-06T01:18:48.352Z,0
2018-07-06T01:19:53.788Z,0
2018-07-06T01:20:59.231Z,0
2018-07-06T01:22:04.357Z,0
2018-07-06T01:23:08.949Z,0
2018-07-06T01:24:14.117Z,0
2018-07-06T01:25:19.629Z,0
2018-07-06T01:26:25.080Z,0
2018-07-06T01:27:30.643Z,0
2018-07-06T01:28:35.804Z,0
2018-07-06T01:29:40.962Z,0
2018-07-06T01:30:46.467Z,0
2018-07-06T01:31:51.940Z,0
2018-07-06T01:32:57.096Z,0
2018-07-06T01:34:02.533Z,0
2018-07-06T01:35:07.977Z,0
2018-07-06T01:36:13.427Z,0
2018-07-06T01:37:18.679Z,0
2018-07-06T01:38:24.129Z,0
2018-07-06T01:39:29.712Z,0
2018-07-06T01:40:34.321Z,0
2018-07-06T01:41:39.467Z,0
2018-07-06T01:42:45.158Z,0
2018-07-06T01:43:50.615Z,0
2018-07-06T01:44:56.067Z,0
2018-07-06T01:46:01.491Z,0
2018-07-06T01:47:06.647Z,0
2018-07-06T01:48:11.514Z,0
2018-07-06T01:49:17.025Z,0
2018-07-06T01:50:22.468Z,0
2018-07-06T01:51:27.288Z,0
2018-07-06T01:52:32.767Z,0
2018-07-06T01:53:37.946Z,0
2018-07-06T01:54:43.650Z,0
2018-07-06T01:55:48.245Z,0
2018-07-06T01:56:53.729Z,0
2018-07-06T01:57:59.428Z,0
2018-07-06T01:59:04.873Z,0
2018-07-06T02:00:10.046Z,0
2018-07-06T02:01:15.453Z,0
2018-07-06T02:02:20.887Z,0
2018-07-06T02:03:27.514Z,0
2018-07-06T02:04:32.385Z,0
2018-07-06T02:05:37.822Z,0
2018-07-06T02:06:43.674Z,0
2018-07-06T02:07:49.126Z,0
2018-07-06T02:08:54.277Z,0
2018-07-06T02:10:00.134Z,0
2018-07-06T02:11:05.583Z,0
2018-07-06T02:12:10.727Z,0
2018-07-06T02:13:16.576Z,0
2018-07-06T02:14:22.012Z,0
2018-07-06T02:15:27.876Z,0
2018-07-06T02:16:33.322Z,0
2018-07-06T02:17:38.786Z,0
2018-07-06T02:18:43.929Z,0
2018-07-06T02:19:49.405Z,0
2018-07-06T02:20:54.285Z,0
2018-07-06T02:22:00.104Z,0
2018-07-06T02:23:05.277Z,0
2018-07-06T02:24:10.708Z,0
2018-07-06T02:25:16.280Z,0
2018-07-06T02:26:21.723Z,0
2018-07-06T02:27:27.665Z,0
2018-07-06T02:28:32.823Z,0
2018-07-06T02:29:37.709Z,0
2018-07-06T02:30:43.496Z,0
2018-07-06T02:31:48.660Z,0
2018-07-06T02:32:53.844Z,0
2018-07-06T02:33:58.687Z,0
2018-07-06T02:35:03.568Z,0
2018-07-06T02:36:08.725Z,0
2018-07-06T02:37:14.581Z,0
2018-07-06T02:38:20.029Z,0
2018-07-06T02:39:25.971Z,0
2018-07-06T02:40:31.125Z,0
2018-07-06T02:41:36.280Z,0
2018-07-06T02:42:41.972Z,0
2018-07-06T02:43:47.425Z,0
2018-07-06T02:44:52.862Z,0
2018-07-06T02:45:58.287Z,0
2018-07-06T02:47:03.448Z,0
2018-07-06T02:48:08.888Z,0
2018-07-06T02:49:14.497Z,0
2018-07-06T02:50:19.977Z,0
2018-07-06T02:51:25.432Z,0
2018-07-06T02:52:30.466Z,0
2018-07-06T02:53:35.915Z,0
2018-07-06T02:54:41.320Z,0
2018-07-06T02:55:46.486Z,0
2018-07-06T02:56:51.930Z,0
2018-07-06T02:57:57.360Z,0
2018-07-06T02:59:02.528Z,0
2018-07-06T03:00:07.122Z,0
2018-07-06T03:01:12.825Z,0
2018-07-06T03:02:17.986Z,0
2018-07-06T03:03:23.435Z,0
2018-07-06T03:04:29.555Z,0
2018-07-06T03:05:34.998Z,0
2018-07-06T03:06:40.865Z,0
2018-07-06T03:07:46.010Z,0
2018-07-06T03:08:51.163Z,0
2018-07-06T03:09:56.730Z,0
2018-07-06T03:11:02.238Z,0
2018-07-06T03:12:07.386Z,0
2018-07-06T03:13:12.540Z,0
2018-07-06T03:14:17.712Z,0
2018-07-06T03:15:22.310Z,0
2018-07-06T03:16:27.823Z,0
2018-07-06T03:17:33.290Z,0
2018-07-06T03:18:38.982Z,0
2018-07-06T03:19:44.439Z,0
2018-07-06T03:20:49.598Z,0
2018-07-06T03:21:55.037Z,0
2018-07-06T03:22:59.918Z,0
2018-07-06T03:24:04.805Z,0
2018-07-06T03:25:10.379Z,0
2018-07-06T03:26:15.559Z,0
2018-07-06T03:27:20.994Z,0
2018-07-06T03:28:42.784Z,0
2018-07-06T03:29:49.863Z,0
2018-07-06T03:30:55.700Z,0
2018-07-06T03:32:01.141Z,0
2018-07-06T03:33:06.041Z,0
2018-07-06T03:34:11.736Z,0
2018-07-06T03:35:16.907Z,0
2018-07-06T03:36:22.072Z,0
2018-07-06T03:37:27.874Z,0
2018-07-06T03:38:32.794Z,0
2018-07-06T03:39:38.199Z,0
2018-07-06T03:40:43.637Z,0
2018-07-06T03:41:48.829Z,0
2018-07-06T03:42:54.669Z,0
2018-07-06T03:44:00.111Z,0
2018-07-06T03:45:05.582Z,0
2018-07-06T03:46:10.714Z,0
2018-07-06T03:47:16.154Z,0
2018-07-06T03:48:21.603Z,0
2018-07-06T03:49:27.484Z,0
2018-07-06T03:50:32.915Z,0
2018-07-06T03:51:38.616Z,0
2018-07-06T03:52:44.064Z,0
2018-07-06T03:53:49.225Z,0
2018-07-06T03:54:54.824Z,0
2018-07-06T03:56:00.166Z,0
2018-07-06T03:57:05.623Z,0
2018-07-06T03:58:11.190Z,0
2018-07-06T03:59:16.342Z,0
2018-07-06T04:00:21.518Z,0
2018-07-06T04:01:27.715Z,0
2018-07-06T04:02:32.914Z,6
2018-07-06T04:03:38.143Z,6
2018-07-06T04:04:43.627Z,6
2018-07-06T04:05:49.103Z,6
2018-07-06T04:06:54.799Z,6
2018-07-06T04:08:00.257Z,6
2018-07-06T04:09:05.410Z,6
2018-07-06T04:10:10.245Z,6
2018-07-06T04:11:15.690Z,6
2018-07-06T04:12:21.156Z,24
2018-07-06T04:13:26.889Z,24
2018-07-06T04:14:32.319Z,24
2018-07-06T04:15:38.169Z,24
2018-07-06T04:16:43.625Z,24
2018-07-06T04:17:48.797Z,24
2018-07-06T04:18:54.640Z,24
2018-07-06T04:19:59.516Z,24
2018-07-06T04:21:04.683Z,24
2018-07-06T04:22:10.240Z,24
2018-07-06T04:23:15.706Z,24
2018-07-06T04:24:20.871Z,24
2018-07-06T04:25:26.437Z,24
2018-07-06T04:26:32.169Z,24
2018-07-06T04:27:37.894Z,24
2018-07-06T04:28:43.335Z,24
2018-07-06T04:29:48.786Z,24
2018-07-06T04:30:53.925Z,24
2018-07-06T04:31:58.821Z,24
2018-07-06T04:33:04.266Z,24
2018-07-06T04:34:09.177Z,40
2018-07-06T04:35:14.349Z,40
2018-07-06T04:36:19.502Z,40
2018-07-06T04:37:25.349Z,40
2018-07-06T04:38:30.530Z,40
2018-07-06T04:39:37.277Z,40
2018-07-06T04:40:42.728Z,40
2018-07-06T04:41:47.590Z,40
2018-07-06T04:42:53.208Z,40
2018-07-06T04:43:58.642Z,40
2018-07-06T04:45:03.518Z,40
2018-07-06T04:46:09.108Z,40
2018-07-06T04:47:14.278Z,40
2018-07-06T04:48:19.737Z,40
2018-07-06T04:49:24.607Z,40
2018-07-06T04:50:29.781Z,40
2018-07-06T04:51:35.632Z,40
2018-07-06T04:52:41.082Z,40
2018-07-06T04:53:46.518Z,40
2018-07-06T04:54:51.956Z,40
2018-07-06T04:55:57.402Z,40
2018-07-06T04:57:02.561Z,40
2018-07-06T04:58:07.396Z,40
2018-07-06T04:59:12.579Z,40
2018-07-06T05:00:17.749Z,40
2018-07-06T05:01:23.162Z,40
2018-07-06T05:02:28.601Z,40
2018-07-06T05:03:33.739Z,40
2018-07-06T05:04:39.182Z,40
2018-07-06T05:05:44.346Z,40
2018-07-06T05:06:50.229Z,40
2018-07-06T05:07:55.938Z,40
2018-07-06T05:09:01.123Z,40
2018-07-06T05:10:06.666Z,40
2018-07-06T05:11:12.119Z,40
2018-07-06T05:12:17.269Z,40
2018-07-06T05:13:22.981Z,40
2018-07-06T05:14:28.447Z,40
2018-07-06T05:15:34.149Z,40
2018-07-06T05:16:39.115Z,40
2018-07-06T05:17:44.892Z,40
2018-07-06T05:18:50.693Z,40
2018-07-06T05:19:56.132Z,40
2018-07-06T05:21:01.293Z,40
2018-07-06T05:22:06.435Z,40
2018-07-06T05:23:11.600Z,40
2018-07-06T05:24:16.765Z,40
2018-07-06T05:25:22.175Z,40
2018-07-06T05:26:27.610Z,40
2018-07-06T05:27:33.153Z,40
2018-07-06T05:28:38.610Z,40
2018-07-06T05:29:43.504Z,40
2018-07-06T05:30:48.775Z,40
2018-07-06T05:31:53.717Z,40
2018-07-06T05:32:58.892Z,40
2018-07-06T05:34:04.454Z,40
2018-07-06T05:35:09.653Z,40
2018-07-06T05:36:15.098Z,40
2018-07-06T05:37:20.887Z,40
2018-07-06T05:38:26.057Z,55
2018-07-06T05:39:32.131Z,55
2018-07-06T05:40:37.290Z,55
2018-07-06T05:41:42.771Z,40
2018-07-06T05:42:48.442Z,40
2018-07-06T05:43:53.913Z,40
2018-07-06T05:44:58.819Z,40
2018-07-06T05:46:04.059Z,40
2018-07-06T05:47:09.504Z,55
2018-07-06T05:48:14.670Z,55
2018-07-06T05:49:20.098Z,55
2018-07-06T05:50:25.541Z,55
2018-07-06T05:51:30.965Z,55
2018-07-06T05:52:36.144Z,55
2018-07-06T05:53:41.638Z,55
2018-07-06T05:54:47.226Z,55
2018-07-06T05:55:52.672Z,55
2018-07-06T05:56:57.917Z,55
2018-07-06T05:58:03.334Z,55
2018-07-06T05:59:08.210Z,55
2018-07-06T06:00:13.429Z,55
2018-07-06T06:01:19.008Z,55
2018-07-06T06:02:24.461Z,31
2018-07-06T06:03:31.054Z,55
2018-07-06T06:04:36.285Z,55
2018-07-06T06:05:41.508Z,55
2018-07-06T06:06:47.342Z,55
2018-07-06T06:07:52.816Z,55
2018-07-06T06:08:58.422Z,252
2018-07-06T06:10:03.525Z,252
2018-07-06T06:11:08.693Z,252
2018-07-06T06:12:13.637Z,237
2018-07-06T06:13:19.702Z,267
2018-07-06T06:14:25.069Z,267
2018-07-06T06:15:30.506Z,252
2018-07-06T06:16:35.381Z,252
2018-07-06T06:17:40.556Z,252
2018-07-06T06:18:46.549Z,237
2018-07-06T06:19:52.229Z,222
2018-07-06T06:20:57.173Z,267
2018-07-06T06:22:02.310Z,267
2018-07-06T06:23:06.629Z,267
2018-07-06T06:24:12.073Z,227
2018-07-06T06:25:16.919Z,222
2018-07-06T06:26:22.077Z,267
2018-07-06T06:27:27.795Z,267
2018-07-06T06:28:32.955Z,247
2018-07-06T06:29:38.401Z,247
2018-07-06T06:30:44.093Z,262
2018-07-06T06:31:49.576Z,247
2018-07-06T06:32:55.204Z,262
2018-07-06T06:34:01.394Z,262
2018-07-06T06:35:06.292Z,262
2018-07-06T06:36:11.161Z,262
2018-07-06T06:37:16.920Z,237
2018-07-06T06:38:22.364Z,277
2018-07-06T06:39:28.014Z,262
2018-07-06T06:40:33.413Z,247
2018-07-06T06:41:38.579Z,262
2018-07-06T06:42:43.710Z,277
2018-07-06T06:43:48.603Z,277
2018-07-06T06:44:54.049Z,277
2018-07-06T06:45:59.466Z,277
2018-07-06T06:47:04.347Z,277
2018-07-06T06:48:09.515Z,277
2018-07-06T06:49:14.929Z,277
2018-07-06T06:50:20.091Z,277
2018-07-06T06:51:40.174Z,292
2018-07-06T06:52:44.495Z,292
2018-07-06T06:53:49.663Z,292
2018-07-06T06:54:55.515Z,292
2018-07-06T06:56:00.728Z,292
2018-07-06T06:57:05.880Z,292
2018-07-06T06:58:11.618Z,292
2018-07-06T06:59:16.211Z,292
2018-07-06T07:00:28.605Z,287
2018-07-06T07:01:33.800Z,292
2018-07-06T07:02:38.677Z,308
2018-07-06T07:03:44.368Z,292
2018-07-06T07:04:49.552Z,292
2018-07-06T07:05:54.624Z,292
2018-07-06T07:07:00.138Z,232
2018-07-06T07:08:05.308Z,292
2018-07-06T07:09:09.900Z,292
2018-07-06T07:10:15.692Z,292
2018-07-06T07:11:20.854Z,292
2018-07-06T07:12:27.219Z,292
2018-07-06T07:13:32.382Z,277
2018-07-06T07:14:37.862Z,292
2018-07-06T07:15:43.147Z,277
2018-07-06T07:16:48.662Z,277
2018-07-06T07:17:54.137Z,277
2018-07-06T07:18:59.605Z,262
2018-07-06T07:20:04.793Z,277
2018-07-06T07:21:09.885Z,262
2018-07-06T07:22:15.781Z,262
2018-07-06T07:23:20.946Z,237
2018-07-06T07:24:27.501Z,262
2018-07-06T07:25:32.681Z,262
2018-07-06T07:26:38.120Z,262
2018-07-06T07:27:43.856Z,262
2018-07-06T07:28:49.299Z,262
2018-07-06T07:29:54.759Z,262
2018-07-06T07:31:00.281Z,262
2018-07-06T07:32:05.178Z,277
2018-07-06T07:33:10.042Z,262
2018-07-06T07:34:15.017Z,277
2018-07-06T07:35:20.451Z,277
2018-07-06T07:36:40.532Z,277
2018-07-06T07:37:45.711Z,292
2018-07-06T07:38:51.227Z,262
2018-07-06T07:39:56.879Z,292
2018-07-06T07:41:01.786Z,292
2018-07-06T07:42:06.691Z,292
2018-07-06T07:43:12.390Z,277
2018-07-06T07:44:17.565Z,277
2018-07-06T07:45:23.009Z,277
2018-07-06T07:46:28.732Z,277
2018-07-06T07:47:34.425Z,262
2018-07-06T07:48:40.135Z,262
2018-07-06T07:49:45.292Z,262
2018-07-06T07:50:50.184Z,247
2018-07-06T07:51:55.606Z,262
2018-07-06T07:53:00.822Z,252
2018-07-06T07:54:05.429Z,267
2018-07-06T07:55:11.607Z,262
2018-07-06T07:56:17.525Z,277
2018-07-06T07:57:22.972Z,277
2018-07-06T07:58:28.658Z,262
2018-07-06T07:59:34.002Z,262
2018-07-06T08:00:40.060Z,277
2018-07-06T08:01:45.667Z,287
2018-07-06T08:02:50.835Z,292
2018-07-06T08:03:55.960Z,277
2018-07-06T08:05:01.405Z,292
2018-07-06T08:06:05.694Z,287
2018-07-06T08:07:11.238Z,302
2018-07-06T08:08:16.118Z,302
2018-07-06T08:09:20.716Z,287
2018-07-06T08:10:25.850Z,302
2018-07-06T08:11:37.205Z,302
2018-07-06T08:12:43.059Z,302
2018-07-06T08:13:48.506Z,302
2018-07-06T08:14:53.386Z,317
2018-07-06T08:15:59.277Z,317
2018-07-06T08:17:04.731Z,333
2018-07-06T08:18:09.823Z,333
2018-07-06T08:19:15.234Z,333
2018-07-06T08:20:20.404Z,333
2018-07-06T08:21:26.223Z,312
2018-07-06T08:22:31.709Z,327
2018-07-06T08:23:36.869Z,312
2018-07-06T08:24:42.309Z,317
2018-07-06T08:25:47.202Z,333
2018-07-06T08:26:52.648Z,317
2018-07-06T08:27:58.064Z,317
2018-07-06T08:29:03.755Z,317
2018-07-06T08:30:08.925Z,317
2018-07-06T08:31:14.306Z,302
2018-07-06T08:32:19.497Z,317
2018-07-06T08:33:24.659Z,317
2018-07-06T08:34:44.727Z,302
2018-07-06T08:35:50.166Z,302
2018-07-06T08:36:56.014Z,287
2018-07-06T08:38:01.184Z,287
2018-07-06T08:39:06.055Z,292
2018-07-06T08:40:11.895Z,287
2018-07-06T08:41:17.374Z,317
2018-07-06T08:42:22.536Z,333
2018-07-06T08:43:28.475Z,312
2018-07-06T08:44:33.670Z,358
2018-07-06T08:45:38.972Z,367
2018-07-06T08:46:43.868Z,337
2018-07-06T08:47:49.310Z,377
2018-07-06T08:48:55.011Z,383
2018-07-06T08:49:59.890Z,383
2018-07-06T08:51:05.348Z,383
2018-07-06T08:52:11.565Z,383
2018-07-06T08:53:17.062Z,358
2018-07-06T08:54:21.938Z,327
2018-07-06T08:55:27.713Z,327
2018-07-06T08:56:32.893Z,302
2018-07-06T08:57:37.841Z,352
2018-07-06T08:58:43.400Z,392
2018-07-06T08:59:48.746Z,337
2018-07-06T09:00:54.616Z,417
2018-07-06T09:01:58.925Z,433
2018-07-06T09:03:04.092Z,433
2018-07-06T09:04:09.848Z,448
2018-07-06T09:05:14.899Z,448
2018-07-06T09:06:19.767Z,408
2018-07-06T09:07:24.900Z,448
2018-07-06T09:08:29.789Z,463
2018-07-06T09:09:35.072Z,448
2018-07-06T09:10:40.245Z,433
2018-07-06T09:11:45.585Z,417
2018-07-06T09:12:51.252Z,377
2018-07-06T09:13:56.732Z,377
2018-07-06T09:15:01.890Z,438
2018-07-06T09:16:07.624Z,417
2018-07-06T09:17:12.255Z,392
2018-07-06T09:18:17.426Z,408
2018-07-06T09:19:22.998Z,392
2018-07-06T09:20:28.509Z,392
2018-07-06T09:21:33.759Z,392
2018-07-06T09:22:38.637Z,377
2018-07-06T09:23:44.694Z,488
2018-07-06T09:24:50.259Z,463
2018-07-06T09:25:56.102Z,448
2018-07-06T09:27:03.958Z,423
2018-07-06T09:28:09.355Z,458
2018-07-06T09:29:14.312Z,458
2018-07-06T09:30:19.186Z,473
2018-07-06T09:31:23.749Z,483
2018-07-06T09:32:29.391Z,458
2018-07-06T09:33:35.086Z,588
2018-07-06T09:34:40.531Z,442
2018-07-06T09:35:46.046Z,433
2018-07-06T09:36:51.676Z,377
2018-07-06T09:37:56.845Z,352
2018-07-06T09:39:01.754Z,312
2018-07-06T09:40:06.427Z,523
2018-07-06T09:41:11.011Z,408
2018-07-06T09:42:16.500Z,353
2018-07-06T09:43:22.181Z,464
2018-07-06T09:44:27.132Z,474
2018-07-06T09:45:32.663Z,464
2018-07-06T09:46:37.824Z,494
2018-07-06T09:47:43.495Z,479
2018-07-06T09:48:48.240Z,474
2018-07-06T09:49:53.536Z,479
2018-07-06T09:50:59.198Z,504
2018-07-06T09:52:04.862Z,504
2018-07-06T09:53:10.034Z,489
2018-07-06T09:54:14.917Z,564
2018-07-06T09:55:20.086Z,504
2018-07-06T09:56:25.445Z,464
2018-07-06T09:57:31.314Z,474
2018-07-06T09:58:36.685Z,464
2018-07-06T09:59:41.850Z,479
2018-07-06T10:00:47.700Z,474
2018-07-06T10:01:53.145Z,464
2018-07-06T10:02:58.302Z,489
2018-07-06T10:04:03.154Z,549
2018-07-06T10:05:08.030Z,529
2018-07-06T10:06:12.648Z,524
2018-07-06T10:07:18.265Z,534
2018-07-06T10:08:23.734Z,484
2018-07-06T10:09:29.241Z,474
2018-07-06T10:10:34.418Z,459
2018-07-06T10:11:39.580Z,474
2018-07-06T10:12:44.993Z,459
2018-07-06T10:13:50.465Z,443
2018-07-06T10:14:55.632Z,459
2018-07-06T10:16:00.852Z,459
2018-07-06T10:17:05.750Z,449
2018-07-06T10:18:10.344Z,459
2018-07-06T10:19:16.158Z,459
2018-07-06T10:20:21.326Z,493
2018-07-06T10:21:27.776Z,503
2018-07-06T10:22:32.941Z,484
2018-07-06T10:23:38.404Z,474
2018-07-06T10:24:43.979Z,474
2018-07-06T10:25:49.109Z,459
2018-07-06T10:26:54.774Z,493
2018-07-06T10:28:00.007Z,459
2018-07-06T10:29:05.180Z,443
2018-07-06T10:30:10.353Z,464
2018-07-06T10:31:16.147Z,459
2018-07-06T10:32:21.609Z,489
2018-07-06T10:33:41.926Z,493
2018-07-06T10:34:47.002Z,449
2018-07-06T10:35:52.487Z,449
2018-07-06T10:36:57.623Z,493
2018-07-06T10:38:02.496Z,499
2018-07-06T10:39:07.876Z,484
2018-07-06T10:40:13.549Z,484
2018-07-06T10:41:18.980Z,499
2018-07-06T10:42:24.347Z,484
2018-07-06T10:43:30.245Z,499
2018-07-06T10:44:35.695Z,514
2018-07-06T10:45:40.840Z,484
2018-07-06T10:46:46.432Z,493
2018-07-06T10:47:51.886Z,493
2018-07-06T10:48:57.416Z,509
2018-07-06T10:50:02.488Z,468
2018-07-06T10:51:07.103Z,489
2018-07-06T10:52:12.254Z,503
2018-07-06T10:53:16.863Z,524
2018-07-06T10:54:21.771Z,514
2018-07-06T10:55:26.784Z,478
2018-07-06T10:56:32.217Z,474
2018-07-06T10:57:38.340Z,468
2018-07-06T10:58:43.866Z,503
2018-07-06T10:59:48.936Z,493
2018-07-06T11:00:54.179Z,463
2018-07-06T11:01:59.064Z,434
2018-07-06T11:03:04.429Z,434
2018-07-06T11:04:10.239Z,434
2018-07-06T11:05:15.694Z,434
2018-07-06T11:06:21.366Z,509
2018-07-06T11:07:26.890Z,478
2018-07-06T11:08:32.540Z,493
2018-07-06T11:09:38.242Z,478
2018-07-06T11:10:43.680Z,493
2018-07-06T11:11:49.135Z,509
2018-07-06T11:12:54.542Z,478
2018-07-06T11:13:59.699Z,484
2018-07-06T11:15:05.202Z,459
2018-07-06T11:16:11.093Z,459
2018-07-06T11:17:16.576Z,434
2018-07-06T11:18:22.029Z,434
2018-07-06T11:19:41.890Z,524
2018-07-06T11:20:47.075Z,499
2018-07-06T11:21:52.214Z,509
2018-07-06T11:22:57.422Z,509
2018-07-06T11:24:02.298Z,509
2018-07-06T11:25:07.546Z,493
2018-07-06T11:26:12.489Z,524
2018-07-06T11:27:17.653Z,509
2018-07-06T11:28:22.605Z,524
2018-07-06T11:29:28.043Z,493
2018-07-06T11:30:33.326Z,478
2018-07-06T11:31:38.789Z,509
2018-07-06T11:32:43.882Z,499
2018-07-06T11:33:49.488Z,493
2018-07-06T11:34:54.668Z,434
2018-07-06T11:35:59.827Z,509
2018-07-06T11:37:04.664Z,474
2018-07-06T11:38:09.652Z,493
2018-07-06T11:39:16.168Z,524
2018-07-06T11:40:21.310Z,493
2018-07-06T11:41:26.479Z,524
2018-07-06T11:42:31.923Z,524
2018-07-06T11:43:37.284Z,509
2018-07-06T11:44:42.451Z,493
2018-07-06T11:45:48.164Z,493
2018-07-06T11:46:52.908Z,524
2018-07-06T11:47:58.712Z,524
2018-07-06T11:49:04.429Z,524
2018-07-06T11:50:09.869Z,524
2018-07-06T11:51:14.793Z,493
2018-07-06T11:52:20.418Z,493
2018-07-06T11:53:25.576Z,509
2018-07-06T11:54:31.564Z,509
2018-07-06T11:55:37.010Z,509
2018-07-06T11:56:42.178Z,478
2018-07-06T11:57:47.770Z,509
2018-07-06T11:58:52.655Z,484
2018-07-06T11:59:57.848Z,464
2018-07-06T12:01:02.807Z,524
2018-07-06T12:02:07.104Z,509
2018-07-06T12:03:11.424Z,474
2018-07-06T12:04:17.803Z,518
2018-07-06T12:05:23.236Z,518
2018-07-06T12:06:28.882Z,518
2018-07-06T12:07:34.058Z,474
2018-07-06T12:08:39.498Z,459
2018-07-06T12:09:44.907Z,493
2018-07-06T12:10:50.233Z,479
2018-07-06T12:11:55.395Z,474
2018-07-06T12:13:01.104Z,509
2018-07-06T12:14:05.708Z,474
2018-07-06T12:15:10.893Z,493
2018-07-06T12:16:15.890Z,493
2018-07-06T12:17:20.767Z,493
2018-07-06T12:18:25.480Z,493
2018-07-06T12:19:30.652Z,509
2018-07-06T12:20:36.122Z,524
2018-07-06T12:21:41.528Z,509
2018-07-06T12:22:46.762Z,468
2018-07-06T12:23:52.238Z,478
2018-07-06T12:24:57.406Z,493
2018-07-06T12:26:02.582Z,474
2018-07-06T12:27:07.184Z,449
2018-07-06T12:28:12.587Z,464
2018-07-06T12:29:18.021Z,464
2018-07-06T12:30:23.458Z,493
2018-07-06T12:31:28.450Z,493
2018-07-06T12:32:33.342Z,449
2018-07-06T12:33:39.188Z,478
2018-07-06T12:34:44.357Z,493
2018-07-06T12:35:49.534Z,478
2018-07-06T12:36:54.803Z,493
2018-07-06T12:38:00.389Z,478
2018-07-06T12:39:05.267Z,478
2018-07-06T12:40:09.929Z,478
2018-07-06T12:41:15.507Z,509
2018-07-06T12:42:20.775Z,509
2018-07-06T12:43:26.569Z,478
2018-07-06T12:44:31.149Z,478
2018-07-06T12:45:36.860Z,478
2018-07-06T12:46:41.718Z,86
2018-07-06T12:47:46.323Z,64
2018-07-06T12:48:51.769Z,72
2018-07-06T12:49:57.483Z,86
2018-07-06T12:51:02.853Z,86
2018-07-06T12:52:08.773Z,86
2018-07-06T12:53:14.024Z,86
2018-07-06T12:54:18.342Z,86
2018-07-06T12:55:23.460Z,86
2018-07-06T12:56:28.628Z,86
2018-07-06T12:57:34.129Z,86
2018-07-06T12:58:40.273Z,55
2018-07-06T12:59:46.015Z,95
2018-07-06T13:00:51.609Z,95
2018-07-06T13:01:57.367Z,95
2018-07-06T13:03:02.567Z,95
2018-07-06T13:04:08.020Z,55
2018-07-06T13:05:13.457Z,48
2018-07-06T13:06:18.613Z,48
2018-07-06T13:07:23.854Z,48
2018-07-06T13:08:29.010Z,64
2018-07-06T13:09:34.294Z,64
2018-07-06T13:10:39.159Z,95
2018-07-06T13:11:44.604Z,64
2018-07-06T13:12:50.289Z,64
2018-07-06T13:13:55.448Z,64
2018-07-06T13:15:00.803Z,86
2018-07-06T13:16:06.208Z,64
2018-07-06T13:17:11.440Z,64
2018-07-06T13:18:16.596Z,64
2018-07-06T13:19:22.104Z,95
2018-07-06T13:20:27.355Z,48
2018-07-06T13:21:33.037Z,31
2018-07-06T13:22:38.480Z,95
2018-07-06T13:23:43.648Z,68
2018-07-06T13:24:49.348Z,95
2018-07-06T13:25:54.679Z,68
2018-07-06T13:27:00.435Z,95
2018-07-06T13:28:05.718Z,48
2018-07-06T13:29:11.158Z,31
2018-07-06T13:30:16.611Z,48
2018-07-06T13:31:22.300Z,86
2018-07-06T13:32:27.184Z,86
2018-07-06T13:33:32.823Z,68
2018-07-06T13:34:38.592Z,68
2018-07-06T13:35:44.037Z,86
2018-07-06T13:36:49.458Z,55
2018-07-06T13:37:54.342Z,86
2018-07-06T13:38:59.236Z,103
2018-07-06T13:40:04.537Z,48
2018-07-06T13:41:09.414Z,48
2018-07-06T13:42:14.869Z,86
2018-07-06T13:43:20.813Z,86
2018-07-06T13:44:26.224Z,86
2018-07-06T13:45:30.935Z,31
2018-07-06T13:46:36.123Z,86
2018-07-06T13:47:41.361Z,31
2018-07-06T13:48:46.881Z,86
2018-07-06T13:49:51.963Z,86
2018-07-06T13:50:57.125Z,86
2018-07-06T13:52:02.755Z,86
2018-07-06T13:53:06.578Z,86
2018-07-06T13:54:11.629Z,68
2018-07-06T13:55:17.187Z,68
2018-07-06T13:56:22.645Z,68
2018-07-06T13:57:28.125Z,68
2018-07-06T13:58:33.587Z,68
2018-07-06T13:59:38.751Z,68
2018-07-06T14:00:44.188Z,68
2018-07-06T14:01:49.352Z,40
2018-07-06T14:02:54.531Z,40
2018-07-06T14:03:59.936Z,40
2018-07-06T14:05:04.815Z,68
2018-07-06T14:06:09.962Z,68
2018-07-06T14:07:15.662Z,95
2018-07-06T14:08:20.828Z,95
2018-07-06T14:09:40.985Z,95
2018-07-06T14:10:45.865Z,68
2018-07-06T14:11:51.147Z,68
2018-07-06T14:12:56.932Z,95
2018-07-06T14:14:01.813Z,95
2018-07-06T14:15:06.412Z,37
2018-07-06T14:16:11.549Z,95
2018-07-06T14:17:16.430Z,95
2018-07-06T14:18:21.597Z,95
2018-07-06T14:19:41.469Z,68
2018-07-06T14:20:47.238Z,68
2018-07-06T14:21:52.607Z,68
2018-07-06T14:22:57.768Z,68
2018-07-06T14:24:03.119Z,86
2018-07-06T14:25:08.961Z,55
2018-07-06T14:26:14.115Z,86
2018-07-06T14:27:19.285Z,68
2018-07-06T14:28:24.432Z,55
2018-07-06T14:29:29.886Z,86
2018-07-06T14:30:35.526Z,86
2018-07-06T14:31:40.991Z,86
2018-07-06T14:32:46.179Z,86
2018-07-06T14:33:51.819Z,86
2018-07-06T14:34:57.395Z,68
2018-07-06T14:36:02.455Z,68
2018-07-06T14:37:07.982Z,68
2018-07-06T14:38:12.852Z,68
2018-07-06T14:39:18.500Z,68
2018-07-06T14:40:24.496Z,68
2018-07-06T14:41:29.088Z,68
2018-07-06T14:42:34.933Z,68
2018-07-06T14:43:40.100Z,68
2018-07-06T14:44:45.264Z,68
2018-07-06T14:45:50.714Z,68
2018-07-06T14:46:56.367Z,95
2018-07-06T14:48:01.241Z,95
2018-07-06T14:49:06.746Z,64
2018-07-06T14:50:11.763Z,68
2018-07-06T14:51:16.660Z,68
2018-07-06T14:52:22.074Z,95
2018-07-06T14:53:27.529Z,68
2018-07-06T14:54:33.035Z,68
2018-07-06T14:55:37.925Z,68
2018-07-06T14:56:42.536Z,86
2018-07-06T14:57:47.940Z,68
2018-07-06T14:58:53.380Z,68
2018-07-06T14:59:58.548Z,68
2018-07-06T15:01:03.709Z,68
2018-07-06T15:02:09.164Z,68
2018-07-06T15:03:14.660Z,68
2018-07-06T15:04:20.342Z,68
2018-07-06T15:05:25.798Z,86
2018-07-06T15:06:31.414Z,86
2018-07-06T15:07:37.094Z,86
2018-07-06T15:08:41.891Z,86
2018-07-06T15:09:47.459Z,86
2018-07-06T15:10:52.378Z,86
2018-07-06T15:11:57.246Z,103
2018-07-06T15:13:02.919Z,103
2018-07-06T15:14:08.118Z,103
2018-07-06T15:15:13.588Z,103
2018-07-06T15:16:19.383Z,103
2018-07-06T15:17:24.548Z,103
2018-07-06T15:18:29.565Z,103
2018-07-06T15:19:34.727Z,103
2018-07-06T15:20:40.233Z,103
2018-07-06T15:21:45.624Z,103
2018-07-06T15:22:50.793Z,119
2018-07-06T15:23:55.118Z,92
2018-07-06T15:25:00.960Z,92
2018-07-06T15:26:05.565Z,92
2018-07-06T15:27:10.733Z,92
2018-07-06T15:28:16.735Z,92
2018-07-06T15:29:21.308Z,110